createdAt,value
2022-09-26T06:34:38.134Z,28.43
2022-09-26T06:37:40.146Z,28.63
2022-09-26T06:40:17.667Z,30.53
2022-09-26T06:42:56.262Z,31.97
2022-09-26T06:45:46.219Z,30.93
2022-09-26T06:48:30.642Z,34.63
2022-09-26T06:51:32.226Z,31.87
2022-09-26T06:54:10.242Z,31.00
2022-09-26T06:56:47.222Z,28.37
2022-09-26T06:59:24.404Z,26.37
2022-09-26T07:02:09.879Z,28.50
2022-09-26T07:05:04.791Z,23.83
2022-09-26T07:08:02.861Z,27.13
2022-09-26T07:10:41.451Z,24.57
2022-09-26T07:13:23.397Z,24.90
2022-09-26T07:16:01.790Z,24.77
2022-09-26T07:18:59.180Z,24.97
2022-09-26T07:22:07.081Z,21.83
2022-09-26T07:25:04.310Z,21.87
2022-09-26T07:27:42.213Z,24.33
2022-09-26T07:30:19.798Z,19.10
2022-09-26T07:33:09.465Z,26.17
2022-09-26T07:35:54.284Z,24.67
2022-09-26T07:38:32.759Z,21.97
2022-09-26T07:41:12.775Z,23.73
2022-09-26T07:47:01.428Z,23.67
2022-09-26T07:49:56.613Z,22.50
2022-09-26T07:52:48.918Z,20.40
2022-09-26T07:55:32.438Z,19.73
2022-09-26T07:58:48.789Z,19.38
2022-09-26T08:01:43.436Z,21.63
2022-09-26T08:04:49.718Z,20.90
2022-09-26T08:07:27.808Z,23.90
2022-09-26T08:10:18.808Z,20.08
2022-09-26T08:13:22.159Z,19.17
2022-09-26T08:16:23.790Z,17.93
2022-09-26T08:19:08.245Z,18.77
2022-09-26T08:21:44.974Z,20.33
2022-09-26T08:24:22.123Z,19.13
2022-09-26T08:27:16.725Z,18.17
2022-09-26T08:29:54.517Z,19.33
2022-09-26T08:32:34.369Z,18.25
2022-09-26T08:35:15.223Z,18.88
2022-09-26T08:38:09.378Z,15.68
2022-09-26T08:41:01.643Z,17.10
2022-09-26T08:44:04.452Z,14.60
2022-09-26T08:47:05.292Z,14.40
2022-09-26T08:50:18.611Z,13.50
2022-09-26T08:53:00.272Z,15.48
2022-09-26T08:55:43.220Z,15.90
2022-09-26T08:58:29.232Z,16.15
2022-09-26T09:01:20.332Z,15.77
2022-09-26T09:04:43.391Z,14.38
2022-09-26T09:07:27.056Z,13.48
2022-09-26T09:10:09.591Z,13.50
2022-09-26T09:13:10.690Z,16.40
2022-09-26T09:16:35.427Z,12.55
2022-09-26T09:19:29.993Z,11.88
2022-09-26T09:22:55.908Z,10.60
2022-09-26T09:25:46.261Z,10.38
2022-09-26T09:28:39.931Z,9.65
2022-09-26T09:31:19.547Z,12.55
2022-09-26T09:34:06.645Z,9.48
2022-09-26T09:37:25.360Z,8.27
2022-09-26T09:40:39.005Z,9.63
2022-09-26T09:43:27.032Z,8.20
2022-09-26T09:46:15.470Z,8.23
2022-09-26T09:48:53.890Z,8.52
2022-09-26T09:51:49.600Z,9.25
2022-09-26T09:54:53.661Z,9.63
2022-09-26T09:58:22.109Z,9.73
2022-09-26T10:01:10.168Z,10.05
2022-09-26T10:03:56.551Z,9.23
2022-09-26T10:06:45.294Z,10.13
2022-09-26T10:09:38.916Z,10.32
2022-09-26T10:12:37.135Z,8.95
2022-09-26T10:15:47.890Z,8.77
2022-09-26T10:19:03.951Z,7.93
2022-09-26T10:21:45.231Z,7.95
2022-09-26T10:24:39.170Z,9.13
2022-09-26T10:27:26.918Z,8.32
2022-09-26T10:30:07.750Z,8.52
2022-09-26T10:32:56.409Z,6.93
2022-09-26T10:36:11.674Z,10.10
2022-09-26T10:39:12.024Z,7.28
2022-09-26T10:41:51.274Z,6.82
2022-09-26T10:44:35.721Z,7.82
2022-09-26T10:47:33.074Z,7.80
2022-09-26T10:50:29.789Z,6.53
2022-09-26T10:53:26.264Z,9.10
2022-09-26T10:56:12.340Z,8.13
2022-09-26T10:58:52.415Z,10.52
2022-09-26T11:01:34.522Z,7.88
2022-09-26T11:04:35.391Z,6.82
2022-09-26T11:07:44.940Z,6.43
2022-09-26T11:10:42.552Z,6.97
2022-09-26T11:13:33.120Z,5.93
2022-09-26T11:16:20.592Z,6.22
2022-09-26T11:19:15.769Z,6.25
2022-09-26T11:22:02.190Z,6.18
2022-09-26T11:24:54.764Z,5.22
2022-09-26T11:27:43.643Z,5.43
2022-09-26T11:30:27.430Z,5.43
2022-09-26T11:33:19.167Z,5.90
2022-09-26T11:36:17.262Z,5.75
2022-09-26T11:39:02.621Z,5.47
2022-09-26T11:41:56.865Z,6.22
2022-09-26T11:44:55.283Z,6.63
2022-09-26T11:48:07.093Z,8.00
2022-09-26T11:51:16.274Z,6.65
2022-09-26T11:54:37.834Z,6.22
2022-09-26T11:57:37.580Z,6.95
2022-09-26T12:00:24.827Z,8.25
2022-09-26T12:03:57.387Z,8.13
2022-09-26T12:06:39.345Z,8.80
2022-09-26T12:09:45.624Z,7.43
2022-09-26T12:12:39.666Z,7.90
2022-09-26T12:15:28.925Z,6.72
2022-09-26T12:18:17.696Z,7.55
2022-09-26T12:21:12.825Z,7.22
2022-09-26T12:23:57.537Z,8.95
2022-09-26T12:26:44.478Z,10.18
2022-09-26T12:29:38.353Z,10.95
2022-09-26T12:35:30.011Z,8.48
2022-09-26T12:38:26.886Z,10.57
2022-09-26T12:41:17.096Z,8.18
2022-09-26T12:44:14.996Z,8.27
2022-09-26T12:47:26.606Z,8.10
2022-09-26T12:50:31.234Z,9.82
2022-09-26T12:53:34.949Z,8.35
2022-09-26T12:56:15.830Z,9.45
2022-09-26T12:59:16.007Z,6.50
2022-09-26T13:02:34.647Z,7.53
2022-09-26T13:06:13.858Z,6.47
2022-09-26T13:08:58.858Z,5.95
2022-09-26T13:11:48.519Z,5.60
2022-09-26T13:14:50.088Z,8.35
2022-09-26T13:17:36.280Z,5.05
2022-09-26T13:20:23.003Z,5.32
2022-09-26T13:23:08.187Z,4.70
2022-09-26T13:25:55.054Z,5.05
2022-09-26T13:28:55.704Z,4.95
2022-09-26T13:31:44.835Z,5.50
2022-09-26T13:34:35.204Z,7.82
2022-09-26T13:37:28.547Z,6.43
2022-09-26T13:40:25.488Z,5.93
2022-09-26T13:43:23.844Z,9.85
2022-09-26T13:46:16.418Z,5.05
2022-09-26T13:49:02.716Z,4.45
2022-09-26T13:51:51.908Z,5.15
2022-09-26T13:54:33.891Z,7.07
2022-09-26T13:57:35.567Z,3.63
2022-09-26T14:00:49.473Z,3.72
2022-09-26T14:03:45.608Z,3.30
2022-09-26T14:07:02.716Z,3.55
2022-09-26T14:09:53.587Z,3.75
2022-09-26T14:12:56.506Z,3.38
2022-09-26T14:16:07.168Z,4.38
2022-09-26T14:19:06.889Z,4.00
2022-09-26T14:22:03.796Z,6.28
2022-09-26T14:24:43.111Z,4.45
2022-09-26T14:27:49.766Z,4.03
2022-09-26T14:30:33.870Z,5.63
2022-09-26T14:33:15.780Z,5.20
2022-09-26T14:36:34.147Z,4.38
2022-09-26T14:39:39.788Z,4.97
2022-09-26T14:42:31.417Z,5.78
2022-09-26T14:45:22.345Z,6.50
2022-09-26T14:48:11.317Z,4.20
2022-09-26T14:50:58.189Z,5.88
2022-09-26T14:53:43.959Z,5.80
2022-09-26T14:56:45.293Z,5.78
2022-09-26T14:59:45.376Z,3.88
2022-09-26T15:02:45.165Z,4.22
2022-09-26T15:05:33.109Z,6.68
2022-09-26T15:08:27.928Z,5.90
2022-09-26T15:11:04.873Z,6.78
2022-09-26T15:13:49.509Z,4.10
2022-09-26T15:16:37.810Z,5.63
2022-09-26T15:19:19.648Z,5.43
2022-09-26T15:22:02.527Z,3.40
2022-09-26T15:24:40.617Z,4.90
2022-09-26T15:27:27.717Z,5.18
2022-09-26T15:30:20.201Z,4.97
2022-09-26T15:33:00.606Z,6.18
2022-09-26T15:35:39.078Z,4.90
2022-09-26T15:38:17.008Z,6.15
2022-09-26T15:41:07.287Z,7.07
2022-09-26T15:43:42.599Z,6.90
2022-09-26T15:46:31.091Z,6.45
2022-09-26T15:49:18.038Z,5.25
2022-09-26T15:52:02.032Z,6.68
2022-09-26T15:54:45.598Z,9.68
2022-09-26T15:57:27.465Z,8.40
2022-09-26T16:00:07.684Z,6.05
2022-09-26T16:02:57.085Z,6.20
2022-09-26T16:05:35.264Z,8.20
2022-09-26T16:08:24.322Z,8.15
2022-09-26T16:11:06.376Z,7.80
2022-09-26T16:13:50.968Z,7.90
2022-09-26T16:16:34.286Z,6.55
2022-09-26T16:19:36.037Z,7.20
2022-09-26T16:22:45.835Z,12.02
2022-09-26T16:25:28.213Z,10.35
2022-09-26T16:28:26.130Z,8.95
2022-09-26T16:31:27.378Z,11.05
2022-09-26T16:34:07.253Z,8.23
2022-09-26T16:36:48.654Z,9.13
2022-09-26T16:39:28.848Z,7.95
2022-09-26T16:42:17.941Z,6.57
2022-09-26T16:44:57.909Z,7.85
2022-09-26T16:47:45.421Z,10.00
2022-09-26T16:50:33.624Z,6.75
2022-09-26T16:53:16.906Z,7.40
2022-09-26T16:55:56.140Z,7.25
2022-09-26T16:58:34.460Z,10.20
2022-09-26T17:01:26.910Z,9.57
2022-09-26T17:06:43.981Z,9.88
2022-09-26T17:09:28.577Z,12.15
2022-09-26T17:12:10.959Z,8.85
2022-09-26T17:14:53.048Z,14.23
2022-09-26T17:17:30.879Z,10.60
2022-09-26T17:20:16.158Z,10.45
2022-09-26T17:22:56.679Z,13.00
2022-09-26T17:25:37.543Z,12.07
2022-09-26T17:28:23.728Z,11.10
2022-09-26T17:31:06.740Z,10.95
2022-09-26T17:33:47.299Z,12.63
2022-09-26T17:36:30.780Z,12.68
2022-09-26T17:39:10.301Z,10.80
